Terminal Aerodrome Forecast
Issued by NWS Missoula, MT

Home | Current Version | Previous Version | Text Only | Print | Product List | Glossary On
Versions: 1 2 3 4 5 6 7 8 9 10 11 12 13 14 15 16 17 18 19
000
FTUS45 KMSO 201126
TAFMSO
TAF
KMSO 201126Z 2012/2112 12007KT P6SM VCSH BKN050 OVC070
     FM201600 VRB05KT P6SM VCSH SCT030 BKN050
     FM202100 VRB05KT P6SM BKN060=

USA.gov is the U.S. government's official web portal to all federal, state and local government web resources and services.